Time;durP1;ratioP1;P1;durP2;ratioP2;P2;SDS_P1;SDS_P2;PMS_P1;PMS_P2;Temp;Humidity;BMP_temperature;BMP_pressure;BME280_temperature;BME280_humidity;BME280_pressure;Samples;Min_cycle;Max_cycle;Signal;HPM_P1;HPM_P2
2023/10/13 00:01:25;;;;;;;1.98;0.60;;;16.40;99.90;;;;;;4995974;28;20893;-77
2023/10/13 00:03:54;;;;;;;4.45;0.60;;;16.40;99.90;;;;;;4992692;28;20043;-77
2023/10/13 00:06:20;;;;;;;2.78;0.80;;;16.50;99.90;;;;;;4979069;28;20057;-77
2023/10/13 00:08:46;;;;;;;5.88;0.73;;;16.60;99.90;;;;;;4994037;28;20053;-76
2023/10/13 00:11:13;;;;;;;2.45;0.70;;;16.70;99.90;;;;;;4995862;28;20088;-77
2023/10/13 00:13:57;;;;;;;5.88;1.10;;;16.80;99.90;;;;;;4996676;28;20030;-78
2023/10/13 00:16:27;;;;;;;3.78;1.20;;;16.90;99.90;;;;;;4994664;28;20087;-76
2023/10/13 00:18:59;;;;;;;6.88;1.40;;;17.00;99.90;;;;;;4997279;28;20126;-77
2023/10/13 00:21:31;;;;;;;6.50;1.90;;;17.10;99.90;;;;;;4997131;28;20049;-76
2023/10/13 00:23:59;;;;;;;5.15;2.05;;;17.20;99.90;;;;;;4997472;28;20022;-78
2023/10/13 00:26:29;;;;;;;4.60;1.40;;;17.20;99.90;;;;;;4995548;28;20026;-77
2023/10/13 00:31:36;;;;;;;5.72;1.90;;;17.30;99.90;;;;;;4997938;28;20038;-77
2023/10/13 00:34:15;;;;;;;7.18;1.60;;;17.40;99.90;;;;;;4997138;28;20041;-75
2023/10/13 00:39:25;;;;;;;4.40;1.48;;;17.50;99.90;;;;;;4998033;28;20044;-75
2023/10/13 00:41:52;;;;;;;8.77;1.83;;;17.50;99.90;;;;;;4998388;28;20034;-77
2023/10/13 00:44:28;;;;;;;14.02;2.28;;;17.50;99.90;;;;;;4998719;28;20087;-75
2023/10/13 00:46:56;;;;;;;8.98;2.40;;;17.40;99.90;;;;;;4992583;28;20045;-77
2023/10/13 00:49:22;;;;;;;10.65;2.22;;;17.40;99.90;;;;;;5002051;28;20109;-75
2023/10/13 00:51:49;;;;;;;13.30;2.42;;;17.40;99.90;;;;;;5002338;28;20117;-77
2023/10/13 00:54:18;;;;;;;11.38;2.53;;;17.30;99.90;;;;;;5002399;28;20034;-76
2023/10/13 00:56:57;;;;;;;10.35;2.13;;;17.30;99.90;;;;;;5002150;28;20531;-76
2023/10/13 00:59:25;;;;;;;11.35;2.60;;;17.20;99.90;;;;;;4982176;28;20476;-75
2023/10/13 01:01:55;;;;;;;19.08;2.85;;;17.20;99.90;;;;;;4985363;28;20041;-76
2023/10/13 01:04:24;;;;;;;8.53;2.23;;;17.20;99.90;;;;;;5000490;28;20033;-76
2023/10/13 01:06:53;;;;;;;12.10;2.80;;;17.20;99.90;;;;;;5001081;28;20037;-77
2023/10/13 01:09:18;;;;;;;9.77;3.15;;;17.20;99.90;;;;;;5001587;28;20026;-76
2023/10/13 01:11:52;;;;;;;18.38;3.33;;;17.20;99.90;;;;;;5001585;28;20037;-77
2023/10/13 01:14:20;;;;;;;17.77;3.88;;;17.20;99.90;;;;;;5002374;28;20026;-76
2023/10/13 01:16:47;;;;;;;19.10;4.28;;;17.20;99.90;;;;;;5001390;28;20048;-76
2023/10/13 01:19:17;;;;;;;16.15;3.70;;;17.20;99.90;;;;;;4999482;28;20025;-77
2023/10/13 01:21:44;;;;;;;18.88;4.32;;;17.20;99.90;;;;;;5000920;28;20557;-78
2023/10/13 01:24:13;;;;;;;17.48;4.25;;;17.20;99.90;;;;;;4997986;28;20022;-77
2023/10/13 01:26:39;;;;;;;17.27;4.75;;;17.10;99.90;;;;;;4981450;28;20432;-76
2023/10/13 01:29:13;;;;;;;17.10;4.88;;;17.10;99.90;;;;;;4982512;28;20053;-77
2023/10/13 01:31:45;;;;;;;18.88;5.07;;;17.10;99.90;;;;;;4994290;28;20057;-77
2023/10/13 01:34:24;;;;;;;13.93;4.40;;;17.00;99.90;;;;;;5001184;28;20026;-78
2023/10/13 01:36:51;;;;;;;21.13;5.28;;;17.00;99.90;;;;;;4999931;28;20038;-77
2023/10/13 01:39:19;;;;;;;18.13;5.65;;;17.00;99.90;;;;;;5001890;28;20450;-77
2023/10/13 01:41:44;;;;;;;21.58;6.07;;;17.00;99.90;;;;;;5000306;28;20044;-78
2023/10/13 01:44:11;;;;;;;21.63;5.97;;;16.90;99.90;;;;;;4999408;28;20112;-78
2023/10/13 01:46:38;;;;;;;17.98;5.30;;;16.90;99.90;;;;;;4999311;28;20026;-76
2023/10/13 01:49:03;;;;;;;21.77;6.07;;;16.80;99.90;;;;;;4999006;28;20281;-78
2023/10/13 01:51:29;;;;;;;24.75;5.57;;;16.80;99.90;;;;;;4999469;28;20095;-78
2023/10/13 01:53:57;;;;;;;24.58;6.07;;;16.70;99.90;;;;;;5001320;28;20030;-78
2023/10/13 01:56:24;;;;;;;17.67;5.57;;;16.70;99.90;;;;;;5000847;28;20044;-77
2023/10/13 01:58:51;;;;;;;23.35;6.10;;;16.70;99.90;;;;;;5000842;28;20018;-78
2023/10/13 02:01:26;;;;;;;25.58;6.70;;;16.60;99.90;;;;;;5000197;28;20048;-77
2023/10/13 02:04:01;;;;;;;28.67;6.32;;;16.60;99.90;;;;;;4998383;28;20026;-77
2023/10/13 02:06:32;;;;;;;22.45;5.63;;;16.50;99.90;;;;;;4997429;28;20030;-78
2023/10/13 02:09:04;;;;;;;27.67;6.57;;;16.50;99.90;;;;;;4992210;28;20037;-77
2023/10/13 02:11:30;;;;;;;26.85;6.30;;;16.50;99.90;;;;;;4999647;28;20069;-77
2023/10/13 02:13:57;;;;;;;29.67;6.90;;;16.50;99.90;;;;;;4999631;28;20095;-77
2023/10/13 02:16:25;;;;;;;28.00;6.20;;;16.50;99.90;;;;;;4998803;28;20375;-77
2023/10/13 02:18:53;;;;;;;23.20;6.60;;;16.50;99.90;;;;;;5000138;28;20021;-77
2023/10/13 02:21:19;;;;;;;27.23;5.80;;;16.50;99.90;;;;;;4999893;28;20092;-77
2023/10/13 02:23:45;;;;;;;28.58;6.20;;;16.50;99.90;;;;;;5000048;28;20463;-76
2023/10/13 02:26:29;;;;;;;24.30;6.38;;;16.50;99.90;;;;;;4999577;28;20069;-78
2023/10/13 02:28:57;;;;;;;29.55;6.85;;;16.60;99.90;;;;;;4978215;28;20480;-77
2023/10/13 02:31:24;;;;;;;25.42;6.07;;;16.60;99.90;;;;;;4977273;28;20034;-77
2023/10/13 02:33:50;;;;;;;22.40;6.18;;;16.70;99.90;;;;;;4987508;28;20022;-76
2023/10/13 02:36:22;;;;;;;19.73;5.88;;;16.70;99.90;;;;;;4994770;28;20059;-77
2023/10/13 02:38:50;;;;;;;25.95;5.72;;;16.70;99.90;;;;;;4978438;28;20034;-77
2023/10/13 02:41:25;;;;;;;26.13;6.00;;;16.70;99.90;;;;;;4977602;28;20042;-78
2023/10/13 02:43:51;;;;;;;26.60;6.90;;;16.70;99.90;;;;;;4986586;28;20128;-77
2023/10/13 02:46:17;;;;;;;21.13;6.30;;;16.80;99.90;;;;;;4997147;28;20194;-77
2023/10/13 02:48:45;;;;;;;17.55;6.43;;;16.80;99.90;;;;;;4995857;28;20050;-77
2023/10/13 02:51:15;;;;;;;25.17;6.78;;;16.80;99.90;;;;;;4997737;28;20053;-76
2023/10/13 02:53:48;;;;;;;27.58;6.22;;;16.90;99.90;;;;;;4997417;28;20118;-76
2023/10/13 02:56:20;;;;;;;21.42;6.30;;;16.90;99.90;;;;;;4996834;28;20108;-76
2023/10/13 02:59:08;;;;;;;25.08;6.38;;;16.90;99.90;;;;;;4998051;28;20074;-76
2023/10/13 03:01:34;;;;;;;19.80;6.32;;;17.00;99.90;;;;;;4995875;28;20054;-76
2023/10/13 03:04:02;;;;;;;17.95;6.53;;;17.00;99.90;;;;;;4996927;28;20022;-77
2023/10/13 03:06:34;;;;;;;23.65;6.68;;;17.00;99.90;;;;;;4987465;28;20084;-76
2023/10/13 03:09:14;;;;;;;25.85;6.40;;;17.00;99.90;;;;;;4997445;28;20029;-77
2023/10/13 03:11:50;;;;;;;34.83;8.07;;;17.10;99.90;;;;;;4994925;28;20488;-77
2023/10/13 03:14:32;;;;;;;26.90;6.75;;;17.10;99.90;;;;;;4997112;28;20462;-77
2023/10/13 03:17:04;;;;;;;30.52;6.90;;;17.10;99.90;;;;;;4997124;28;20033;-77
2023/10/13 03:19:34;;;;;;;30.00;7.13;;;17.10;99.90;;;;;;4997013;28;20097;-77
2023/10/13 03:22:11;;;;;;;29.73;6.68;;;17.20;99.90;;;;;;4998141;28;20052;-76
2023/10/13 03:24:41;;;;;;;21.95;6.72;;;17.20;99.90;;;;;;4996910;28;20638;-78
2023/10/13 03:27:11;;;;;;;27.70;6.95;;;17.20;99.90;;;;;;4996588;28;20034;-77
2023/10/13 03:29:42;;;;;;;26.73;7.60;;;17.20;99.90;;;;;;4996593;28;20117;-77
2023/10/13 03:32:14;;;;;;;34.25;7.35;;;17.30;99.90;;;;;;4998091;28;20108;-78
2023/10/13 03:34:49;;;;;;;27.75;7.22;;;17.40;99.90;;;;;;4999160;28;20054;-78
2023/10/13 03:37:20;;;;;;;26.55;8.05;;;17.50;99.90;;;;;;4999966;28;20030;-78
2023/10/13 03:39:45;;;;;;;34.08;8.63;;;17.50;99.90;;;;;;4999464;28;20029;-77
2023/10/13 03:42:21;;;;;;;30.15;8.02;;;17.50;99.90;;;;;;4999494;28;20046;-78
2023/10/13 03:44:47;;;;;;;27.75;7.47;;;17.50;99.90;;;;;;4988953;28;20029;-77
2023/10/13 03:47:26;;;;;;;27.13;7.20;;;17.50;99.90;;;;;;4980580;28;20034;-77
2023/10/13 03:50:14;;;;;;;29.73;7.38;;;17.50;99.90;;;;;;4998593;28;20038;-77
2023/10/13 03:52:38;;;;;;;27.48;7.25;;;17.40;99.90;;;;;;4998526;28;20041;-79
2023/10/13 03:55:05;;;;;;;22.60;8.10;;;17.40;99.90;;;;;;4999257;28;20455;-77
2023/10/13 03:57:37;;;;;;;23.13;7.20;;;17.50;99.90;;;;;;4998918;28;20032;-78
2023/10/13 04:00:08;;;;;;;26.67;7.85;;;17.40;99.90;;;;;;4998464;28;20140;-76
2023/10/13 04:02:36;;;;;;;23.27;7.18;;;17.40;99.90;;;;;;4999245;28;20042;-78
2023/10/13 04:05:08;;;;;;;25.52;7.38;;;17.50;99.90;;;;;;4998310;28;20076;-77
2023/10/13 04:07:39;;;;;;;23.92;6.40;;;17.40;99.90;;;;;;4998540;28;20044;-78
2023/10/13 04:15:42;;;;;;;27.95;6.65;;;17.40;99.90;;;;;;4997655;28;20049;-78
2023/10/13 04:18:27;;;;;;;21.50;6.53;;;17.50;99.90;;;;;;4995436;28;20130;-76
2023/10/13 04:21:03;;;;;;;18.60;6.10;;;17.40;99.90;;;;;;4997590;28;20057;-79
2023/10/13 04:24:08;;;;;;;20.10;5.78;;;17.40;99.90;;;;;;5000602;28;20124;-79
2023/10/13 04:26:21;;;;;;;20.52;6.25;;;17.40;99.90;;;;;;5001616;28;20030;-78
2023/10/13 04:28:53;;;;;;;20.73;5.75;;;17.50;99.90;;;;;;5002747;28;20086;-78
2023/10/13 04:31:46;;;;;;;31.55;6.38;;;17.40;99.90;;;;;;5000532;28;20036;-77
2023/10/13 04:34:18;;;;;;;;;;;17.40;99.90;;;;;;4980717;28;20034;-78
2023/10/13 04:36:55;;;;;;;22.67;6.15;;;17.40;99.90;;;;;;4986556;28;20016;-77
2023/10/13 04:39:35;;;;;;;23.23;5.93;;;17.40;99.90;;;;;;5000577;28;20450;-77
2023/10/13 04:42:13;;;;;;;20.67;5.97;;;17.50;99.90;;;;;;4999947;28;20140;-77
2023/10/13 04:47:17;;;;;;;22.40;5.70;;;17.60;99.90;;;;;;4998322;28;20521;-77
2023/10/13 04:52:15;;;;;;;27.60;5.90;;;17.60;99.90;;;;;;4999462;28;20034;-76
2023/10/13 05:00:54;;;;;;;23.95;5.72;;;17.70;99.90;;;;;;4998759;28;20037;-76
2023/10/13 06:29:58;;;;;;;30.17;5.65;;;18.60;99.90;;;;;;4989189;28;20498;-76
2023/10/13 06:32:26;;;;;;;24.85;5.60;;;18.70;99.90;;;;;;4984033;28;20031;-75
2023/10/13 06:35:05;;;;;;;27.23;5.93;;;18.60;99.90;;;;;;4998965;28;20076;-74
2023/10/13 06:37:31;;;;;;;27.20;6.63;;;18.60;99.90;;;;;;4992734;28;20452;-76
2023/10/13 06:40:03;;;;;;;18.63;5.32;;;18.80;99.90;;;;;;4999844;28;20060;-75
2023/10/13 06:42:28;;;;;;;18.98;4.82;;;18.80;99.90;;;;;;4999336;28;20108;-75
2023/10/13 06:44:55;;;;;;;21.42;5.20;;;18.80;99.90;;;;;;5000115;28;20085;-76
2023/10/13 06:47:21;;;;;;;20.50;5.20;;;18.80;99.90;;;;;;4999222;28;20038;-75
2023/10/13 06:49:51;;;;;;;23.25;5.72;;;18.80;99.90;;;;;;5000933;28;20509;-76
2023/10/13 06:52:17;;;;;;;23.23;5.38;;;18.80;99.90;;;;;;4999839;28;20040;-75
2023/10/13 06:54:43;;;;;;;27.98;5.68;;;18.80;99.90;;;;;;5000791;28;20034;-76
2023/10/13 06:57:14;;;;;;;27.95;5.80;;;18.90;99.90;;;;;;5000939;28;20080;-76
2023/10/13 06:59:41;;;;;;;16.60;4.55;;;18.80;99.90;;;;;;5000952;28;20038;-77
2023/10/13 07:02:09;;;;;;;20.55;5.05;;;19.00;99.90;;;;;;5001120;28;20057;-76
2023/10/13 07:04:39;;;;;;;17.95;4.80;;;19.10;99.90;;;;;;5001292;28;20030;-74
2023/10/13 07:07:09;;;;;;;22.10;4.95;;;19.20;99.90;;;;;;4993178;28;20041;-76
2023/10/13 07:12:03;;;;;;;20.05;4.82;;;19.40;99.90;;;;;;5000176;28;20508;-74
2023/10/13 07:14:33;;;;;;;23.75;4.85;;;19.50;99.90;;;;;;5000698;28;20038;-76
2023/10/13 07:17:04;;;;;;;19.83;4.82;;;19.70;99.90;;;;;;4998801;28;20064;-75
2023/10/13 07:19:30;;;;;;;19.83;4.63;;;19.70;99.90;;;;;;5001514;28;20061;-75
2023/10/13 07:22:19;;;;;;;17.92;4.60;;;19.80;99.90;;;;;;5001536;28;20045;-76
2023/10/13 07:24:48;;;;;;;19.17;5.10;;;19.70;99.90;;;;;;5000797;28;20116;-76
2023/10/13 07:27:23;;;;;;;15.85;4.38;;;19.70;99.90;;;;;;5001530;28;20037;-76
2023/10/13 07:30:06;;;;;;;21.85;4.65;;;19.70;99.90;;;;;;5000151;28;20022;-76
2023/10/13 07:32:33;;;;;;;13.02;4.47;;;19.60;99.90;;;;;;5000378;28;20502;-76
2023/10/13 07:35:09;;;;;;;18.17;4.75;;;19.50;99.90;;;;;;5001406;28;20026;-76
2023/10/13 07:37:35;;;;;;;18.02;4.90;;;19.50;99.90;;;;;;5000033;28;20064;-77
2023/10/13 07:40:00;;;;;;;23.02;4.80;;;19.50;99.90;;;;;;5000471;28;20026;-76
2023/10/13 07:42:31;;;;;;;14.68;5.18;;;19.40;99.90;;;;;;4999073;28;20045;-76
2023/10/13 07:44:58;;;;;;;25.88;5.05;;;19.40;99.90;;;;;;4999995;28;20038;-77
2023/10/13 07:47:26;;;;;;;21.20;4.70;;;19.40;99.90;;;;;;4998450;28;20046;-77
2023/10/13 07:49:52;;;;;;;17.83;4.53;;;19.50;99.90;;;;;;5000462;28;20148;-75
2023/10/13 07:54:49;;;;;;;17.05;4.22;;;19.60;99.90;;;;;;4999873;28;20085;-76
2023/10/13 07:57:18;;;;;;;14.73;4.45;;;19.60;99.90;;;;;;5001370;28;20064;-76
2023/10/13 07:59:53;;;;;;;24.45;5.78;;;19.70;99.90;;;;;;5019021;28;20042;-75
2023/10/13 08:05:39;;;;;;;;;;;19.80;99.90;;;;;;4982003;28;20038;-76
2023/10/13 08:08:14;;;;;;;19.00;5.05;;;19.90;99.90;;;;;;5001664;28;20425;-76
2023/10/13 08:10:42;;;;;;;22.98;5.18;;;20.00;99.90;;;;;;5002439;28;20014;-77
2023/10/13 08:13:12;;;;;;;21.60;5.72;;;20.00;99.90;;;;;;4999229;28;20169;-77
2023/10/13 08:15:47;;;;;;;23.05;5.38;;;20.00;99.90;;;;;;4996440;28;20026;-76
2023/10/13 08:18:19;;;;;;;22.33;5.55;;;20.00;99.90;;;;;;4997156;28;20034;-76
2023/10/13 08:20:45;;;;;;;17.98;4.82;;;20.10;99.90;;;;;;4995409;28;20122;-76
2023/10/13 08:23:14;;;;;;;23.35;5.80;;;19.90;99.90;;;;;;4996170;28;20086;-76
2023/10/13 08:31:22;;;;;;;22.73;5.13;;;19.60;99.90;;;;;;4997160;28;20044;-75
2023/10/13 08:33:50;;;;;;;19.50;5.93;;;19.50;99.90;;;;;;4995369;28;20129;-77
2023/10/13 08:36:29;;;;;;;20.48;6.45;;;19.40;99.90;;;;;;4998577;28;20045;-75
2023/10/13 08:38:55;;;;;;;22.45;6.55;;;19.10;99.90;;;;;;4983463;28;20107;-74
2023/10/13 08:43:51;;;;;;;28.48;6.63;;;18.70;99.90;;;;;;5003243;28;20193;-74
2023/10/13 08:46:29;;;;;;;35.15;6.15;;;18.70;99.90;;;;;;4997477;28;20034;-76
2023/10/13 08:49:14;;;;;;;25.13;6.00;;;18.80;99.90;;;;;;4996777;28;20045;-75
2023/10/13 08:51:43;;;;;;;24.35;6.15;;;19.00;99.90;;;;;;4988521;28;20038;-76
2023/10/13 08:54:19;;;;;;;20.00;5.43;;;19.10;99.90;;;;;;5003374;28;20097;-75
2023/10/13 08:56:56;;;;;;;25.90;6.47;;;19.20;99.90;;;;;;5000933;28;20153;-74
2023/10/13 08:59:24;;;;;;;24.73;5.53;;;19.30;99.90;;;;;;5001288;28;20091;-76
2023/10/13 09:01:59;;;;;;;24.02;5.40;;;19.40;99.90;;;;;;4998486;28;20545;-73
2023/10/13 09:09:34;;;;;;;18.92;5.32;;;19.80;99.90;;;;;;5002486;28;20030;-76
2023/10/13 09:12:14;;;;;;;24.05;5.78;;;19.90;99.90;;;;;;5000969;28;20033;-75
2023/10/13 09:14:45;;;;;;;23.80;5.38;;;19.90;99.90;;;;;;5003265;28;20100;-77
2023/10/13 09:19:57;;;;;;;19.15;5.65;;;20.20;99.90;;;;;;5002808;28;20030;-76
2023/10/13 09:22:35;;;;;;;20.70;5.82;;;20.20;99.90;;;;;;5001975;28;20474;-76
2023/10/13 09:25:05;;;;;;;21.05;6.13;;;20.30;99.90;;;;;;5003595;28;20030;-75
2023/10/13 09:27:33;;;;;;;23.27;5.97;;;20.30;99.90;;;;;;4991131;28;20038;-76
2023/10/13 09:30:22;;;;;;;22.15;6.22;;;20.20;99.90;;;;;;4995115;28;20026;-77
2023/10/13 09:32:45;;;;;;;20.48;6.57;;;20.10;99.90;;;;;;5000061;28;20076;-75
2023/10/13 09:35:33;;;;;;;27.52;6.18;;;19.90;99.90;;;;;;4989839;28;20034;-74
2023/10/13 09:38:03;;;;;;;20.90;6.05;;;19.90;99.90;;;;;;4998416;28;20072;-76
2023/10/13 09:43:04;;;;;;;21.10;5.70;;;19.90;99.90;;;;;;5002322;28;20808;-76
2023/10/13 09:45:43;;;;;;;22.92;5.05;;;19.90;99.90;;;;;;5001837;28;20136;-74
2023/10/13 09:48:21;;;;;;;24.15;5.85;;;19.90;99.90;;;;;;5012782;28;20057;-76
2023/10/13 09:50:48;;;;;;;29.23;6.68;;;20.00;99.90;;;;;;5002003;28;20409;-75
2023/10/13 09:53:17;;;;;;;21.23;5.68;;;20.10;99.90;;;;;;5000950;28;20038;-76
2023/10/13 09:56:14;;;;;;;26.40;5.93;;;20.20;99.90;;;;;;5002254;28;20041;-75
2023/10/13 09:58:51;;;;;;;27.15;6.72;;;20.20;99.90;;;;;;5000166;28;20037;-76
2023/10/13 10:01:33;;;;;;;33.17;7.30;;;19.90;99.90;;;;;;5000901;28;20093;-76
2023/10/13 10:04:13;;;;;;;27.73;6.38;;;19.70;99.90;;;;;;5002588;28;20033;-78
2023/10/13 10:06:39;;;;;;;26.83;6.13;;;19.50;99.90;;;;;;4996310;28;20034;-76
2023/10/13 10:09:13;;;;;;;30.17;6.93;;;19.40;99.90;;;;;;4998095;28;20081;-76
2023/10/13 10:11:58;;;;;;;25.20;6.53;;;19.30;99.90;;;;;;5002490;28;20091;-76
2023/10/13 10:15:00;;;;;;;26.40;6.90;;;19.30;99.90;;;;;;5002621;28;20034;-74
2023/10/13 10:17:29;;;;;;;25.27;6.03;;;19.50;99.90;;;;;;4998799;28;20033;-76
2023/10/13 10:19:59;;;;;;;23.60;6.25;;;19.70;99.90;;;;;;5000170;28;20026;-76
2023/10/13 10:22:35;;;;;;;33.28;6.38;;;19.70;99.90;;;;;;5001396;28;20510;-75
2023/10/13 10:25:02;;;;;;;32.88;6.50;;;19.70;99.90;;;;;;4987162;28;20460;-75
2023/10/13 10:27:32;;;;;;;25.88;6.47;;;19.50;99.90;;;;;;5002664;28;20030;-76
2023/10/13 10:29:59;;;;;;;28.90;5.82;;;19.40;99.90;;;;;;5002425;28;20116;-77
2023/10/13 10:32:40;;;;;;;29.08;6.18;;;19.40;99.90;;;;;;5001414;28;20033;-75
2023/10/13 10:35:20;;;;;;;25.27;5.75;;;19.40;99.90;;;;;;5000257;28;20795;-75
2023/10/13 10:37:49;;;;;;;26.63;6.00;;;19.30;99.90;;;;;;4992533;28;20380;-75
2023/10/13 10:41:04;;;;;;;31.85;7.22;;;19.30;99.90;;;;;;4990689;28;20550;-74
2023/10/13 10:43:08;;;;;;;36.63;6.97;;;19.20;99.90;;;;;;4988370;28;20041;-75
2023/10/13 10:45:37;;;;;;;34.67;6.40;;;19.20;99.90;;;;;;5000374;28;20559;-75
2023/10/13 10:48:17;;;;;;;31.13;6.53;;;19.20;99.90;;;;;;4999830;28;20038;-76
2023/10/13 10:50:53;;;;;;;35.35;7.20;;;19.10;99.90;;;;;;4989687;28;20125;-74
2023/10/13 10:53:22;;;;;;;41.05;6.75;;;19.00;99.90;;;;;;5000859;28;20488;-76
2023/10/13 10:55:48;;;;;;;28.90;6.00;;;19.00;99.90;;;;;;4996790;28;20475;-76
2023/10/13 10:58:28;;;;;;;26.95;5.78;;;19.30;99.90;;;;;;4997347;28;20053;-74
